sensor_id;sensor_type;location;lat;lon;timestamp;pressure;altitude;pressure_sealevel;temperature
71630;BMP280;59479;51.902;8.212;2024-02-16T00:00:09;100504.56;;;12.53
71630;BMP280;59479;51.902;8.212;2024-02-16T00:02:39;100500.41;;;12.52
71630;BMP280;59479;51.902;8.212;2024-02-16T00:05:06;100495.41;;;12.46
71630;BMP280;59479;51.902;8.212;2024-02-16T00:07:33;100487.00;;;12.47
71630;BMP280;59479;51.902;8.212;2024-02-16T00:09:59;100493.75;;;12.47
71630;BMP280;59479;51.902;8.212;2024-02-16T00:12:24;100489.50;;;12.50
71630;BMP280;59479;51.902;8.212;2024-02-16T00:14:50;100493.66;;;12.53
71630;BMP280;59479;51.902;8.212;2024-02-16T00:17:15;100494.59;;;12.44
71630;BMP280;59479;51.902;8.212;2024-02-16T00:19:40;100492.09;;;12.43
71630;BMP280;59479;51.902;8.212;2024-02-16T00:22:06;100497.94;;;12.43
71630;BMP280;59479;51.902;8.212;2024-02-16T00:24:34;100495.44;;;12.43
71630;BMP280;59479;51.902;8.212;2024-02-16T00:27:02;100487.94;;;12.39
71630;BMP280;59479;51.902;8.212;2024-02-16T00:29:28;100488.75;;;12.39
71630;BMP280;59479;51.902;8.212;2024-02-16T00:31:53;100492.97;;;12.37
71630;BMP280;59479;51.902;8.212;2024-02-16T00:34:19;100490.47;;;12.37
71630;BMP280;59479;51.902;8.212;2024-02-16T00:36:44;100496.31;;;12.41
71630;BMP280;59479;51.902;8.212;2024-02-16T00:39:09;100497.16;;;12.38
71630;BMP280;59479;51.902;8.212;2024-02-16T00:41:35;100492.94;;;12.42
71630;BMP280;59479;51.902;8.212;2024-02-16T00:44:00;100492.94;;;12.42
71630;BMP280;59479;51.902;8.212;2024-02-16T00:46:25;100487.91;;;12.42
71630;BMP280;59479;51.902;8.212;2024-02-16T00:48:52;100490.44;;;12.39
71630;BMP280;59479;51.902;8.212;2024-02-16T00:51:19;100490.50;;;12.34
71630;BMP280;59479;51.902;8.212;2024-02-16T00:53:45;100487.97;;;12.34
71630;BMP280;59479;51.902;8.212;2024-02-16T00:56:12;100490.47;;;12.36
71630;BMP280;59479;51.902;8.212;2024-02-16T00:58:40;100497.19;;;12.37
71630;BMP280;59479;51.902;8.212;2024-02-16T01:01:05;100484.63;;;12.32
71630;BMP280;59479;51.902;8.212;2024-02-16T01:03:36;100485.47;;;12.30
71630;BMP280;59479;51.902;8.212;2024-02-16T01:06:03;100487.19;;;12.28
71630;BMP280;59479;51.902;8.212;2024-02-16T01:08:28;100487.19;;;12.28
71630;BMP280;59479;51.902;8.212;2024-02-16T01:10:53;100480.44;;;12.30
71630;BMP280;59479;51.902;8.212;2024-02-16T01:13:19;100488.84;;;12.32
71630;BMP280;59479;51.902;8.212;2024-02-16T01:15:44;100482.09;;;12.32
71630;BMP280;59479;51.902;8.212;2024-02-16T01:18:09;100483.78;;;12.33
71630;BMP280;59479;51.902;8.212;2024-02-16T01:20:34;100477.09;;;12.28
71630;BMP280;59479;51.902;8.212;2024-02-16T01:23:00;100475.47;;;12.24
71630;BMP280;59479;51.902;8.212;2024-02-16T01:25:25;100479.63;;;12.25
71630;BMP280;59479;51.902;8.212;2024-02-16T01:27:51;100484.72;;;12.22
71630;BMP280;59479;51.902;8.212;2024-02-16T01:30:17;100481.31;;;12.26
71630;BMP280;59479;51.902;8.212;2024-02-16T01:32:43;100479.63;;;12.25
71630;BMP280;59479;51.902;8.212;2024-02-16T01:35:09;100478.81;;;12.26
71630;BMP280;59479;51.902;8.212;2024-02-16T01:37:34;100483.03;;;12.22
71630;BMP280;59479;51.902;8.212;2024-02-16T01:39:59;100479.69;;;12.22
71630;BMP280;59479;51.902;8.212;2024-02-16T01:42:25;100475.50;;;12.21
71630;BMP280;59479;51.902;8.212;2024-02-16T01:44:50;100478.00;;;12.21
71630;BMP280;59479;51.902;8.212;2024-02-16T01:47:16;100469.63;;;12.19
71630;BMP280;59479;51.902;8.212;2024-02-16T01:49:43;100480.53;;;12.21
71630;BMP280;59479;51.902;8.212;2024-02-16T01:52:08;100473.78;;;12.24
71630;BMP280;59479;51.902;8.212;2024-02-16T01:54:34;100472.06;;;12.26
71630;BMP280;59479;51.902;8.212;2024-02-16T01:57:00;100475.44;;;12.27
71630;BMP280;59479;51.902;8.212;2024-02-16T01:59:26;100465.38;;;12.25
71630;BMP280;59479;51.902;8.212;2024-02-16T02:01:51;100465.38;;;12.27
71630;BMP280;59479;51.902;8.212;2024-02-16T02:04:17;100462.88;;;12.21
71630;BMP280;59479;51.902;8.212;2024-02-16T02:06:42;100460.41;;;12.18
71630;BMP280;59479;51.902;8.212;2024-02-16T02:09:07;100452.00;;;12.17
71630;BMP280;59479;51.902;8.212;2024-02-16T02:11:34;100454.56;;;12.15
71630;BMP280;59479;51.902;8.212;2024-02-16T02:13:59;100454.53;;;12.17
71630;BMP280;59479;51.902;8.212;2024-02-16T02:16:25;100448.66;;;12.18
71630;BMP280;59479;51.902;8.212;2024-02-16T02:18:52;100451.13;;;12.23
71630;BMP280;59479;51.902;8.212;2024-02-16T02:21:17;100452.81;;;12.21
71630;BMP280;59479;51.902;8.212;2024-02-16T02:23:43;100452.78;;;12.24
71630;BMP280;59479;51.902;8.212;2024-02-16T02:26:08;100450.25;;;12.27
71630;BMP280;59479;51.902;8.212;2024-02-16T02:28:34;100439.31;;;12.28
71630;BMP280;59479;51.902;8.212;2024-02-16T02:30:59;100432.63;;;12.25
71630;BMP280;59479;51.902;8.212;2024-02-16T02:33:25;100429.31;;;12.19
71630;BMP280;59479;51.902;8.212;2024-02-16T02:35:50;100429.34;;;12.17
71630;BMP280;59479;51.902;8.212;2024-02-16T02:38:16;100428.44;;;12.23
71630;BMP280;59479;51.902;8.212;2024-02-16T02:40:42;100421.75;;;12.23
71630;BMP280;59479;51.902;8.212;2024-02-16T02:43:07;100419.16;;;12.25
71630;BMP280;59479;51.902;8.212;2024-02-16T02:45:32;100414.16;;;12.23
71630;BMP280;59479;51.902;8.212;2024-02-16T02:47:58;100420.03;;;12.25
71630;BMP280;59479;51.902;8.212;2024-02-16T02:50:23;100412.50;;;12.22
71630;BMP280;59479;51.902;8.212;2024-02-16T02:52:49;100414.13;;;12.25
71630;BMP280;59479;51.902;8.212;2024-02-16T02:55:14;100409.06;;;12.28
71630;BMP280;59479;51.902;8.212;2024-02-16T02:57:40;100403.22;;;12.26
71630;BMP280;59479;51.902;8.212;2024-02-16T03:00:13;100396.53;;;12.23
71630;BMP280;59479;51.902;8.212;2024-02-16T03:02:49;100390.66;;;12.20
71630;BMP280;59479;51.902;8.212;2024-02-16T03:05:23;100394.88;;;12.21
71630;BMP280;59479;51.902;8.212;2024-02-16T03:08:01;100392.34;;;12.21
71630;BMP280;59479;51.902;8.212;2024-02-16T03:10:53;100390.72;;;12.18
71630;BMP280;59479;51.902;8.212;2024-02-16T03:13:21;100390.66;;;12.20
71630;BMP280;59479;51.902;8.212;2024-02-16T03:15:47;100397.38;;;12.21
71630;BMP280;59479;51.902;8.212;2024-02-16T03:18:23;100396.53;;;12.23
71630;BMP280;59479;51.902;8.212;2024-02-16T03:21:12;100385.59;;;12.23
71630;BMP280;59479;51.902;8.212;2024-02-16T03:23:53;100380.63;;;12.18
71630;BMP280;59479;51.902;8.212;2024-02-16T03:26:24;100387.34;;;12.18
71630;BMP280;59479;51.902;8.212;2024-02-16T03:29:00;100386.50;;;12.19
71630;BMP280;59479;51.902;8.212;2024-02-16T03:31:30;100389.03;;;12.16
71630;BMP280;59479;51.902;8.212;2024-02-16T03:34:03;100376.44;;;12.16
71630;BMP280;59479;51.902;8.212;2024-02-16T03:36:57;100386.53;;;12.16
71630;BMP280;59479;51.902;8.212;2024-02-16T03:39:31;100380.66;;;12.17
71630;BMP280;59479;51.902;8.212;2024-02-16T03:42:02;100382.31;;;12.16
71630;BMP280;59479;51.902;8.212;2024-02-16T03:44:33;100390.72;;;12.18
71630;BMP280;59479;51.902;8.212;2024-02-16T03:47:12;100390.72;;;12.17
71630;BMP280;59479;51.902;8.212;2024-02-16T03:49:54;100384.03;;;12.13
71630;BMP280;59479;51.902;8.212;2024-02-16T03:52:19;100394.97;;;12.12
71630;BMP280;59479;51.902;8.212;2024-02-16T03:54:54;100396.63;;;12.12
71630;BMP280;59479;51.902;8.212;2024-02-16T03:57:33;100399.19;;;12.10
71630;BMP280;59479;51.902;8.212;2024-02-16T04:00:11;100389.97;;;12.09
71630;BMP280;59479;51.902;8.212;2024-02-16T04:02:50;100393.38;;;12.05
71630;BMP280;59479;51.902;8.212;2024-02-16T04:05:18;100401.72;;;12.10
71630;BMP280;59479;51.902;8.212;2024-02-16T04:08:08;100397.50;;;12.09
71630;BMP280;59479;51.902;8.212;2024-02-16T04:10:56;100391.69;;;12.04
71630;BMP280;59479;51.902;8.212;2024-02-16T04:13:24;100391.69;;;12.04
71630;BMP280;59479;51.902;8.212;2024-02-16T04:16:11;100398.41;;;12.04
71630;BMP280;59479;51.902;8.212;2024-02-16T04:22:28;100390.06;;;12.00
71630;BMP280;59479;51.902;8.212;2024-02-16T04:25:01;100380.72;;;12.07
71630;BMP280;59479;51.902;8.212;2024-02-16T04:34:59;100399.22;;;12.06
71630;BMP280;59479;51.902;8.212;2024-02-16T04:38:00;100398.34;;;12.08
71630;BMP280;59479;51.902;8.212;2024-02-16T04:40:39;100398.34;;;12.07
71630;BMP280;59479;51.902;8.212;2024-02-16T04:43:09;100394.19;;;12.06
71630;BMP280;59479;51.902;8.212;2024-02-16T04:49:25;100398.34;;;12.07
71630;BMP280;59479;51.902;8.212;2024-02-16T04:51:51;100375.72;;;12.05
71630;BMP280;59479;51.902;8.212;2024-02-16T04:54:16;100388.34;;;12.02
71630;BMP280;59479;51.902;8.212;2024-02-16T04:56:42;100390.88;;;12.02
71630;BMP280;59479;51.902;8.212;2024-02-16T04:59:07;100388.28;;;12.07
71630;BMP280;59479;51.902;8.212;2024-02-16T05:01:33;100385.75;;;12.08
71630;BMP280;59479;51.902;8.212;2024-02-16T05:03:59;100374.84;;;12.11
71630;BMP280;59479;51.902;8.212;2024-02-16T05:06:25;100379.00;;;12.13
71630;BMP280;59479;51.902;8.212;2024-02-16T05:08:50;100382.38;;;12.14
71630;BMP280;59479;51.902;8.212;2024-02-16T05:11:15;100380.66;;;12.14
71630;BMP280;59479;51.902;8.212;2024-02-16T05:13:41;100378.13;;;12.16
71630;BMP280;59479;51.902;8.212;2024-02-16T05:16:11;100371.41;;;12.17
71630;BMP280;59479;51.902;8.212;2024-02-16T05:18:37;100370.59;;;12.14
71630;BMP280;59479;51.902;8.212;2024-02-16T05:21:03;100359.63;;;12.16
71630;BMP280;59479;51.902;8.212;2024-02-16T05:23:28;100363.00;;;12.17
71630;BMP280;59479;51.902;8.212;2024-02-16T05:25:54;100361.28;;;12.22
71630;BMP280;59479;51.902;8.212;2024-02-16T05:28:19;100362.06;;;12.25
71630;BMP280;59479;51.902;8.212;2024-02-16T05:30:45;100362.91;;;12.26
71630;BMP280;59479;51.902;8.212;2024-02-16T05:33:11;100362.09;;;12.24
71630;BMP280;59479;51.902;8.212;2024-02-16T05:35:36;100358.69;;;12.28
71630;BMP280;59479;51.902;8.212;2024-02-16T05:38:05;100356.97;;;12.30
71630;BMP280;59479;51.902;8.212;2024-02-16T05:40:36;100363.72;;;12.28
71630;BMP280;59479;51.902;8.212;2024-02-16T05:43:19;100358.69;;;12.28
71630;BMP280;59479;51.902;8.212;2024-02-16T05:45:45;100364.50;;;12.31
71630;BMP280;59479;51.902;8.212;2024-02-16T05:48:12;100350.28;;;12.29
71630;BMP280;59479;51.902;8.212;2024-02-16T05:50:37;100355.31;;;12.27
71630;BMP280;59479;51.902;8.212;2024-02-16T05:53:03;100357.81;;;12.30
71630;BMP280;59479;51.902;8.212;2024-02-16T05:55:28;100358.66;;;12.31
71630;BMP280;59479;51.902;8.212;2024-02-16T05:57:54;100367.81;;;12.35
71630;BMP280;59479;51.902;8.212;2024-02-16T06:00:20;100370.31;;;12.38
71630;BMP280;59479;51.902;8.212;2024-02-16T06:02:46;100366.09;;;12.38
71630;BMP280;59479;51.902;8.212;2024-02-16T06:05:12;100363.63;;;12.37
71630;BMP280;59479;51.902;8.212;2024-02-16T06:07:38;100368.63;;;12.40
71630;BMP280;59479;51.902;8.212;2024-02-16T06:10:04;100376.16;;;12.40
71630;BMP280;59479;51.902;8.212;2024-02-16T06:12:32;100377.06;;;12.37
71630;BMP280;59479;51.902;8.212;2024-02-16T06:14:58;100372.84;;;12.38
71630;BMP280;59479;51.902;8.212;2024-02-16T06:17:23;100369.50;;;12.37
71630;BMP280;59479;51.902;8.212;2024-02-16T06:19:49;100366.94;;;12.42
71630;BMP280;59479;51.902;8.212;2024-02-16T06:22:14;100371.13;;;12.40
71630;BMP280;59479;51.902;8.212;2024-02-16T06:24:40;100380.34;;;12.44
71630;BMP280;59479;51.902;8.212;2024-02-16T06:27:05;100386.19;;;12.46
71630;BMP280;59479;51.902;8.212;2024-02-16T06:29:33;100388.69;;;12.49
71630;BMP280;59479;51.902;8.212;2024-02-16T06:31:59;100385.38;;;12.47
71630;BMP280;59479;51.902;8.212;2024-02-16T06:34:24;100385.28;;;12.53
71630;BMP280;59479;51.902;8.212;2024-02-16T06:36:49;100391.94;;;12.57
71630;BMP280;59479;51.902;8.212;2024-02-16T06:39:15;100384.34;;;12.58
71630;BMP280;59479;51.902;8.212;2024-02-16T06:41:45;100389.41;;;12.58
71630;BMP280;59479;51.902;8.212;2024-02-16T06:44:14;100400.25;;;12.63
71630;BMP280;59479;51.902;8.212;2024-02-16T06:46:41;100391.88;;;12.62
71630;BMP280;59479;51.902;8.212;2024-02-16T06:49:06;100396.97;;;12.57
71630;BMP280;59479;51.902;8.212;2024-02-16T06:51:32;100405.31;;;12.61
71630;BMP280;59479;51.902;8.212;2024-02-16T06:53:57;100415.44;;;12.60
71630;BMP280;59479;51.902;8.212;2024-02-16T06:56:23;100412.84;;;12.64
71630;BMP280;59479;51.902;8.212;2024-02-16T06:58:49;100417.88;;;12.67
71630;BMP280;59479;51.902;8.212;2024-02-16T07:01:15;100419.56;;;12.68
71630;BMP280;59479;51.902;8.212;2024-02-16T07:03:40;100417.03;;;12.68
71630;BMP280;59479;51.902;8.212;2024-02-16T07:06:06;100418.69;;;12.69
71630;BMP280;59479;51.902;8.212;2024-02-16T07:08:39;100423.72;;;12.71
71630;BMP280;59479;51.902;8.212;2024-02-16T07:11:04;100426.22;;;12.72
71630;BMP280;59479;51.902;8.212;2024-02-16T07:13:34;100412.69;;;12.79
71630;BMP280;59479;51.902;8.212;2024-02-16T07:16:00;100431.16;;;12.81
71630;BMP280;59479;51.902;8.212;2024-02-16T07:18:25;100428.66;;;12.81
71630;BMP280;59479;51.902;8.212;2024-02-16T07:20:50;100424.47;;;12.79
71630;BMP280;59479;51.902;8.212;2024-02-16T07:23:16;100423.66;;;12.75
71630;BMP280;59479;51.902;8.212;2024-02-16T07:25:43;100433.72;;;12.78
71630;BMP280;59479;51.902;8.212;2024-02-16T07:28:08;100428.75;;;12.72
71630;BMP280;59479;51.902;8.212;2024-02-16T07:30:35;100424.53;;;12.73
71630;BMP280;59479;51.902;8.212;2024-02-16T07:33:01;100433.84;;;12.66
71630;BMP280;59479;51.902;8.212;2024-02-16T07:35:27;100430.47;;;12.67
71630;BMP280;59479;51.902;8.212;2024-02-16T07:37:52;100418.69;;;12.69
71630;BMP280;59479;51.902;8.212;2024-02-16T07:40:22;100417.81;;;12.72
71630;BMP280;59479;51.902;8.212;2024-02-16T07:42:47;100419.47;;;12.74
71630;BMP280;59479;51.902;8.212;2024-02-16T07:45:13;100415.22;;;12.76
71630;BMP280;59479;51.902;8.212;2024-02-16T07:47:42;100411.03;;;12.78
71630;BMP280;59479;51.902;8.212;2024-02-16T07:50:08;100403.44;;;12.81
71630;BMP280;59479;51.902;8.212;2024-02-16T07:52:33;100405.91;;;12.84
71630;BMP280;59479;51.902;8.212;2024-02-16T07:54:58;100412.63;;;12.87
71630;BMP280;59479;51.902;8.212;2024-02-16T07:57:24;100409.34;;;12.82
71630;BMP280;59479;51.902;8.212;2024-02-16T07:59:50;100410.03;;;12.91
71630;BMP280;59479;51.902;8.212;2024-02-16T08:02:15;100411.78;;;12.86
71630;BMP280;59479;51.902;8.212;2024-02-16T08:04:46;100395.81;;;12.87
71630;BMP280;59479;51.902;8.212;2024-02-16T08:07:11;100408.31;;;12.95
71630;BMP280;59479;51.902;8.212;2024-02-16T08:09:36;100411.75;;;12.89
71630;BMP280;59479;51.902;8.212;2024-02-16T08:12:02;100417.63;;;12.90
71630;BMP280;59479;51.902;8.212;2024-02-16T08:14:30;100431.78;;;13.00
71630;BMP280;59479;51.902;8.212;2024-02-16T08:16:57;100427.59;;;12.99
71630;BMP280;59479;51.902;8.212;2024-02-16T08:19:23;100434.25;;;13.04
71630;BMP280;59479;51.902;8.212;2024-02-16T08:21:48;100438.41;;;13.08
71630;BMP280;59479;51.902;8.212;2024-02-16T08:24:13;100434.09;;;13.16
71630;BMP280;59479;51.902;8.212;2024-02-16T08:26:38;100439.94;;;13.18
71630;BMP280;59479;51.902;8.212;2024-02-16T08:29:04;100445.00;;;13.16
71630;BMP280;59479;51.902;8.212;2024-02-16T08:31:29;100450.81;;;13.23
71630;BMP280;59479;51.902;8.212;2024-02-16T08:33:55;100454.09;;;13.29
71630;BMP280;59479;51.902;8.212;2024-02-16T08:36:20;100456.59;;;13.31
71630;BMP280;59479;51.902;8.212;2024-02-16T08:38:52;100462.44;;;13.33
71630;BMP280;59479;51.902;8.212;2024-02-16T08:41:18;100464.94;;;13.36
71630;BMP280;59479;51.902;8.212;2024-02-16T08:43:43;100470.75;;;13.41
71630;BMP280;59479;51.902;8.212;2024-02-16T08:46:08;100464.00;;;13.41
71630;BMP280;59479;51.902;8.212;2024-02-16T08:48:35;100472.44;;;13.42
71630;BMP280;59479;51.902;8.212;2024-02-16T08:51:00;100466.44;;;13.48
71630;BMP280;59479;51.902;8.212;2024-02-16T08:53:26;100467.28;;;13.47
71630;BMP280;59479;51.902;8.212;2024-02-16T08:55:51;100469.78;;;13.50
71630;BMP280;59479;51.902;8.212;2024-02-16T08:58:16;100468.00;;;13.58
71630;BMP280;59479;51.902;8.212;2024-02-16T09:00:42;100477.97;;;13.64
71630;BMP280;59479;51.902;8.212;2024-02-16T09:03:07;100478.91;;;13.59
71630;BMP280;59479;51.902;8.212;2024-02-16T09:05:33;100478.94;;;13.56
71630;BMP280;59479;51.902;8.212;2024-02-16T09:07:59;100478.91;;;13.60
71630;BMP280;59479;51.902;8.212;2024-02-16T09:10:24;100475.47;;;13.63
71630;BMP280;59479;51.902;8.212;2024-02-16T09:12:49;100481.31;;;13.66
71630;BMP280;59479;51.902;8.212;2024-02-16T09:15:17;100493.09;;;13.67
71630;BMP280;59479;51.902;8.212;2024-02-16T09:17:43;100499.75;;;13.71
71630;BMP280;59479;51.902;8.212;2024-02-16T09:20:08;100496.38;;;13.72
71630;BMP280;59479;51.902;8.212;2024-02-16T09:22:34;100496.38;;;13.72
71630;BMP280;59479;51.902;8.212;2024-02-16T09:25:01;100504.75;;;13.77
71630;BMP280;59479;51.902;8.212;2024-02-16T09:27:27;100506.25;;;13.88
71630;BMP280;59479;51.902;8.212;2024-02-16T09:29:52;100502.81;;;13.92
71630;BMP280;59479;51.902;8.212;2024-02-16T09:32:17;100504.41;;;13.98
71630;BMP280;59479;51.902;8.212;2024-02-16T09:34:43;100504.41;;;13.98
71630;BMP280;59479;51.902;8.212;2024-02-16T09:37:08;100508.56;;;14.02
71630;BMP280;59479;51.902;8.212;2024-02-16T09:39:34;100522.09;;;13.96
71630;BMP280;59479;51.902;8.212;2024-02-16T09:41:59;100517.06;;;13.96
71630;BMP280;59479;51.902;8.212;2024-02-16T09:44:26;100523.81;;;13.94
71630;BMP280;59479;51.902;8.212;2024-02-16T09:46:54;100524.72;;;13.92
71630;BMP280;59479;51.902;8.212;2024-02-16T09:49:19;100527.06;;;14.02
71630;BMP280;59479;51.902;8.212;2024-02-16T09:51:45;100528.00;;;13.97
71630;BMP280;59479;51.902;8.212;2024-02-16T09:54:12;100526.38;;;13.93
71630;BMP280;59479;51.902;8.212;2024-02-16T09:56:37;100518.72;;;13.99
71630;BMP280;59479;51.902;8.212;2024-02-16T09:59:03;100527.88;;;14.07
71630;BMP280;59479;51.902;8.212;2024-02-16T10:01:28;100523.75;;;14.03
71630;BMP280;59479;51.902;8.212;2024-02-16T10:04:05;100529.66;;;13.98
71630;BMP280;59479;51.902;8.212;2024-02-16T10:06:31;100531.25;;;14.06
71630;BMP280;59479;51.902;8.212;2024-02-16T10:08:56;100537.06;;;14.11
71630;BMP280;59479;51.902;8.212;2024-02-16T10:11:27;100546.38;;;14.08
71630;BMP280;59479;51.902;8.212;2024-02-16T10:13:57;100537.03;;;14.13
71630;BMP280;59479;51.902;8.212;2024-02-16T10:16:23;100536.91;;;14.23
71630;BMP280;59479;51.902;8.212;2024-02-16T10:18:48;100544.44;;;14.25
71630;BMP280;59479;51.902;8.212;2024-02-16T10:21:24;100546.97;;;14.25
71630;BMP280;59479;51.902;8.212;2024-02-16T10:23:59;100548.59;;;14.28
71630;BMP280;59479;51.902;8.212;2024-02-16T10:26:25;100560.50;;;14.21
71630;BMP280;59479;51.902;8.212;2024-02-16T10:28:54;100564.66;;;14.25
71630;BMP280;59479;51.902;8.212;2024-02-16T10:31:25;100555.22;;;14.35
71630;BMP280;59479;51.902;8.212;2024-02-16T10:34:01;100557.81;;;14.29
71630;BMP280;59479;51.902;8.212;2024-02-16T10:36:31;100564.66;;;14.25
71630;BMP280;59479;51.902;8.212;2024-02-16T10:38:58;100558.44;;;14.45
71630;BMP280;59479;51.902;8.212;2024-02-16T10:41:27;100567.63;;;14.50
71630;BMP280;59479;51.902;8.212;2024-02-16T10:43:56;100563.44;;;14.46
71630;BMP280;59479;51.902;8.212;2024-02-16T10:46:22;100569.44;;;14.42
71630;BMP280;59479;51.902;8.212;2024-02-16T10:48:47;100567.63;;;14.49
71630;BMP280;59479;51.902;8.212;2024-02-16T10:51:15;100574.44;;;14.45
71630;BMP280;59479;51.902;8.212;2024-02-16T10:53:44;100566.09;;;14.40
71630;BMP280;59479;51.902;8.212;2024-02-16T10:56:10;100584.59;;;14.42
71630;BMP280;59479;51.902;8.212;2024-02-16T10:58:36;100585.34;;;14.47
71630;BMP280;59479;51.902;8.212;2024-02-16T11:01:09;100586.31;;;14.42
71630;BMP280;59479;51.902;8.212;2024-02-16T11:03:38;100587.78;;;14.55
71630;BMP280;59479;51.902;8.212;2024-02-16T11:06:13;100584.38;;;14.54
71630;BMP280;59479;51.902;8.212;2024-02-16T11:08:39;100585.09;;;14.64
71630;BMP280;59479;51.902;8.212;2024-02-16T11:11:05;100585.16;;;14.59
71630;BMP280;59479;51.902;8.212;2024-02-16T11:13:34;100590.22;;;14.58
71630;BMP280;59479;51.902;8.212;2024-02-16T11:16:02;100594.47;;;14.57
71630;BMP280;59479;51.902;8.212;2024-02-16T11:18:32;100583.44;;;14.60
71630;BMP280;59479;51.902;8.212;2024-02-16T11:21:01;100588.50;;;14.60
71630;BMP280;59479;51.902;8.212;2024-02-16T11:23:28;100590.91;;;14.69
71630;BMP280;59479;51.902;8.212;2024-02-16T11:25:54;100596.81;;;14.68
71630;BMP280;59479;51.902;8.212;2024-02-16T11:28:25;100588.41;;;14.66
71630;BMP280;59479;51.902;8.212;2024-02-16T11:30:51;100601.84;;;14.69
71630;BMP280;59479;51.902;8.212;2024-02-16T11:33:17;100589.97;;;14.72
71630;BMP280;59479;51.902;8.212;2024-02-16T11:35:52;100600.06;;;14.74
71630;BMP280;59479;51.902;8.212;2024-02-16T11:38:17;100605.19;;;14.71
71630;BMP280;59479;51.902;8.212;2024-02-16T11:40:53;100598.47;;;14.70
71630;BMP280;59479;51.902;8.212;2024-02-16T11:43:22;100610.19;;;14.74
71630;BMP280;59479;51.902;8.212;2024-02-16T11:45:48;100606.69;;;14.81
71630;BMP280;59479;51.902;8.212;2024-02-16T11:48:22;100610.84;;;14.85
71630;BMP280;59479;51.902;8.212;2024-02-16T11:50:48;100609.94;;;14.89
71630;BMP280;59479;51.902;8.212;2024-02-16T11:53:16;100604.88;;;14.89
71630;BMP280;59479;51.902;8.212;2024-02-16T11:55:46;100615.97;;;14.82
71630;BMP280;59479;51.902;8.212;2024-02-16T11:58:12;100603.13;;;14.91
71630;BMP280;59479;51.902;8.212;2024-02-16T12:00:40;100610.59;;;15.00
71630;BMP280;59479;51.902;8.212;2024-02-16T12:03:06;100617.44;;;14.95
71630;BMP280;59479;51.902;8.212;2024-02-16T12:05:32;100617.63;;;14.83
71630;BMP280;59479;51.902;8.212;2024-02-16T12:07:58;100623.34;;;14.94
71630;BMP280;59479;51.902;8.212;2024-02-16T12:10:25;100622.56;;;14.90
71630;BMP280;59479;51.902;8.212;2024-02-16T12:12:50;100623.13;;;15.04
71630;BMP280;59479;51.902;8.212;2024-02-16T12:15:15;100628.94;;;15.11
71630;BMP280;59479;51.902;8.212;2024-02-16T12:17:42;100623.81;;;15.16
71630;BMP280;59479;51.902;8.212;2024-02-16T12:20:14;100622.16;;;15.11
71630;BMP280;59479;51.902;8.212;2024-02-16T12:22:39;100624.69;;;15.11
71630;BMP280;59479;51.902;8.212;2024-02-16T12:25:05;100621.25;;;15.18
71630;BMP280;59479;51.902;8.212;2024-02-16T12:27:30;100626.91;;;15.30
71630;BMP280;59479;51.902;8.212;2024-02-16T12:29:55;100636.28;;;15.25
71630;BMP280;59479;51.902;8.212;2024-02-16T12:32:21;100626.91;;;15.30
71630;BMP280;59479;51.902;8.212;2024-02-16T12:34:46;100626.06;;;15.30
71630;BMP280;59479;51.902;8.212;2024-02-16T12:37:12;100622.69;;;15.29
71630;BMP280;59479;51.902;8.212;2024-02-16T12:39:38;100626.06;;;15.31
71630;BMP280;59479;51.902;8.212;2024-02-16T12:42:03;100634.47;;;15.32
71630;BMP280;59479;51.902;8.212;2024-02-16T12:44:29;100630.19;;;15.35
71630;BMP280;59479;51.902;8.212;2024-02-16T12:46:55;100625.16;;;15.32
71630;BMP280;59479;51.902;8.212;2024-02-16T12:49:21;100630.19;;;15.35
71630;BMP280;59479;51.902;8.212;2024-02-16T12:51:50;100646.97;;;15.39
71630;BMP280;59479;51.902;8.212;2024-02-16T12:54:19;100635.28;;;15.32
71630;BMP280;59479;51.902;8.212;2024-02-16T12:56:45;100639.56;;;15.30
71630;BMP280;59479;51.902;8.212;2024-02-16T12:59:11;100633.59;;;15.33
71630;BMP280;59479;51.902;8.212;2024-02-16T13:01:36;100645.44;;;15.32
71630;BMP280;59479;51.902;8.212;2024-02-16T13:04:02;100647.13;;;15.32
71630;BMP280;59479;51.902;8.212;2024-02-16T13:06:27;100651.25;;;15.37
71630;BMP280;59479;51.902;8.212;2024-02-16T13:08:53;100647.84;;;15.40
71630;BMP280;59479;51.902;8.212;2024-02-16T13:11:18;100654.72;;;15.32
71630;BMP280;59479;51.902;8.212;2024-02-16T13:13:44;100650.25;;;15.44
71630;BMP280;59479;51.902;8.212;2024-02-16T13:16:09;100647.75;;;15.43
71630;BMP280;59479;51.902;8.212;2024-02-16T13:18:34;100662.13;;;15.42
71630;BMP280;59479;51.902;8.212;2024-02-16T13:21:00;100657.78;;;15.49
71630;BMP280;59479;51.902;8.212;2024-02-16T13:23:25;100669.78;;;15.38
71630;BMP280;59479;51.902;8.212;2024-02-16T13:25:50;100660.53;;;15.38
71630;BMP280;59479;51.902;8.212;2024-02-16T13:28:16;100663.72;;;15.46
71630;BMP280;59479;51.902;8.212;2024-02-16T13:30:42;100671.47;;;15.39
71630;BMP280;59479;51.902;8.212;2024-02-16T13:33:07;100665.59;;;15.38
71630;BMP280;59479;51.902;8.212;2024-02-16T13:35:34;100668.19;;;15.34
71630;BMP280;59479;51.902;8.212;2024-02-16T13:38:01;100672.31;;;15.39
71630;BMP280;59479;51.902;8.212;2024-02-16T13:40:26;100675.88;;;15.29
71630;BMP280;59479;51.902;8.212;2024-02-16T13:42:52;100681.81;;;15.28
71630;BMP280;59479;51.902;8.212;2024-02-16T13:45:20;100691.28;;;15.17
71630;BMP280;59479;51.902;8.212;2024-02-16T13:47:45;100685.38;;;15.18
71630;BMP280;59479;51.902;8.212;2024-02-16T13:50:11;100687.84;;;15.21
71630;BMP280;59479;51.902;8.212;2024-02-16T13:52:36;100691.91;;;15.30
71630;BMP280;59479;51.902;8.212;2024-02-16T13:55:02;100690.19;;;15.32
71630;BMP280;59479;51.902;8.212;2024-02-16T13:57:27;100681.84;;;15.27
71630;BMP280;59479;51.902;8.212;2024-02-16T13:59:53;100680.94;;;15.29
71630;BMP280;59479;51.902;8.212;2024-02-16T14:02:19;100683.34;;;15.37
71630;BMP280;59479;51.902;8.212;2024-02-16T14:04:44;100689.50;;;15.22
71630;BMP280;59479;51.902;8.212;2024-02-16T14:07:11;100697.97;;;15.21
71630;BMP280;59479;51.902;8.212;2024-02-16T14:09:36;100687.97;;;15.11
71630;BMP280;59479;51.902;8.212;2024-02-16T14:12:02;100702.31;;;15.12